The Pas Airport

CYQD | YQD

The Pas , Manitoba , Canada

Thursday, September 19th, 2019 | 14:22

Weather

CYQD 191900Z AUTO 09005KT 350V120 9SM SCT220 SCT240 17/08 A3000 RMK PRESFR SLP167 DENSITY ALT 1200FT

Charts

No Charts Available

Gates

No Gates Available

Runways

1 Available

Events

No events for this airport


New event